Stella Polaris — PEBD — position and weather

sailwx.info

Track history (hours):
 
Tides and Currents Weather Stations Pressure Air Temp Water Temp Dewpoint Dewpoint Depression Visibility Wind Speed Wind Dir Waves Ship Positions

Stella Polaris

Last reported at 2014-Sep-30 15:33 UTC. Time now 2014-Sep-30 16:02 UTC.
Position N 45°16' W 073°58'.

Length 117 m.

Type: Tanker. MMSI: 245911000.

Date/timePositionNaut miles runAvg speedWind from/ knotsBaromVisibWave heightAir tempDewpointWater temp
2014-Sep-30 15:33N 45°16' W 073°58'3 3.3
2014-Sep-30 14:33N 45°19' W 073°55'3 2.6
2014-Sep-30 13:33N 45°21' W 073°53'10 9.9
2014-Sep-30 12:33N 45°25' W 073°40'4 4.4
2014-Sep-30 11:33N 45°24' W 073°34'4 3.6
2014-Sep-30 10:33N 45°27' W 073°30'3 2.9
2014-Sep-30 09:33N 45°30' W 073°31'3 3.4
2014-Sep-30 08:33N 45°33' W 073°31'5 4.9
2014-Sep-30 07:33N 45°38' W 073°29'1 0.6
2014-Sep-30 06:33N 45°38' W 073°29'0 0.0
2014-Sep-30 05:33N 45°38' W 073°29'0 0.0
2014-Sep-30 04:33N 45°38' W 073°29'0 0.0
2014-Sep-29 23:23N 45°38' W 073°29'4 5.2
2014-Sep-29 22:33N 45°42' W 073°26'  
Track history (hours):
 
Tides and Currents Weather Stations Pressure Air Temp Water Temp Dewpoint Dewpoint Depression Visibility Wind Speed Wind Dir Waves Ship Positions

Stella Polaris

Last reported at 2014-Sep-30 15:33 UTC. Time now 2014-Sep-30 16:02 UTC.
Position N 45°16' W 073°58'.

Length 117 m.

Type: Tanker. MMSI: 245911000.

Date/timePositionNaut miles runAvg speedWind from/ knotsBaromVisibWave heightAir tempDewpointWater temp
2014-Sep-30 15:33N 45°16' W 073°58'3 3.3
2014-Sep-30 14:33N 45°19' W 073°55'3 2.6
2014-Sep-30 13:33N 45°21' W 073°53'10 9.9
2014-Sep-30 12:33N 45°25' W 073°40'4 4.4
2014-Sep-30 11:33N 45°24' W 073°34'4 3.6
2014-Sep-30 10:33N 45°27' W 073°30'3 2.9
2014-Sep-30 09:33N 45°30' W 073°31'3 3.4
2014-Sep-30 08:33N 45°33' W 073°31'5 4.9
2014-Sep-30 07:33N 45°38' W 073°29'1 0.6
2014-Sep-30 06:33N 45°38' W 073°29'0 0.0
2014-Sep-30 05:33N 45°38' W 073°29'0 0.0
2014-Sep-30 04:33N 45°38' W 073°29'0 0.0
2014-Sep-29 23:23N 45°38' W 073°29'4 5.2
2014-Sep-29 22:33N 45°42' W 073°26'  

Dump ship's entire track history